Laguna Heights, Texas
Current Conditions -  °F | °C
As of 1:53 PM on Sunday 23 Nov 2014 (Local Time) from KPIL Reporting Station
Clear Clear  
Wind Chill: 83°   Ceiling: Unl
Heat Index: 83°   Visibility: 8mi
Dew Point: 54°   Wind: 8mph
Humidity: 37%   Direction: 210°SSW
Pressure: 29.65"   Gusts: NA
Location:  26.0776°N, 97.3389°W
Report Text: KPIL 231953Z AUTO 21007KT 8SM CLR 28/12 A2965 RMK AO2 SLP039 T02830122 $
Loading
Personal Weather Stations






























Interactive Weather Map New forecast layout! Learn more

10-Day Weather Forecast

Advertisements
Track Severe Weather on mobile